Sinai, South Dakota
Current Conditions -  °F | °C
As of 6:50 AM on Saturday 20 Dec 2014 (Local Time) from KMDS Reporting Station
Haze Haze  
Wind Chill: 18°   Ceiling: 600
Heat Index: 28°   Visibility: 6mi
Dew Point: 28°   Wind: 12mph
Humidity: 100%   Direction: 200°SSW
Pressure: 30.03"   Gusts: NA
Location:  44.24°N, 97.04°W
Report Text: KMDS 201250Z AUTO 20010KT 6SM BR OVC006 M02/M02 A3003 RMK AO2
Loading
Personal Weather Stations






























Interactive Weather Map New forecast layout! Learn more

10-Day Weather Forecast

Advertisements
Track Severe Weather on mobile